Time;durP1;ratioP1;P1;durP2;ratioP2;P2;SDS_P1;SDS_P2;PMS_P1;PMS_P2;Temp;Humidity;BMP_temperature;BMP_pressure;BME280_temperature;BME280_humidity;BME280_pressure;Samples;Min_cycle;Max_cycle;Signal;HPM_P1;HPM_P2
2023/04/20 00:02:07;;;;;;;3.53;2.40;;;;;;;6.55;100.00;96440.72;5045326;28;20281;-59
2023/04/20 00:04:35;;;;;;;2.50;2.30;;;;;;;6.57;100.00;96438.78;5045136;28;20222;-58
2023/04/20 00:07:03;;;;;;;2.53;2.33;;;;;;;6.55;100.00;96435.47;5045679;28;20208;-58
2023/04/20 00:09:30;;;;;;;3.20;2.63;;;;;;;6.50;100.00;96426.16;5044966;28;20211;-58
2023/04/20 00:11:57;;;;;;;2.80;2.60;;;;;;;6.49;100.00;96421.00;5046059;28;20203;-59
2023/04/20 00:14:23;;;;;;;2.63;2.43;;;;;;;6.54;100.00;96423.28;5052036;28;20196;-58
2023/04/20 00:16:50;;;;;;;2.97;2.67;;;;;;;6.47;100.00;96417.69;5050942;28;20313;-59
2023/04/20 00:19:16;;;;;;;2.87;2.67;;;;;;;6.47;100.00;96415.06;5045957;28;20212;-59
2023/04/20 00:21:43;;;;;;;3.00;2.80;;;;;;;6.44;100.00;96404.81;5045585;28;20648;-57
2023/04/20 00:24:11;;;;;;;2.70;2.53;;;;;;;6.35;100.00;96405.53;5045057;28;20572;-58
2023/04/20 00:26:37;;;;;;;3.00;2.80;;;;;;;6.41;100.00;96399.81;5045197;28;20207;-59
2023/04/20 00:29:03;;;;;;;3.77;2.60;;;;;;;6.49;100.00;96392.13;5045263;28;20222;-57
2023/04/20 00:31:31;;;;;;;3.10;2.90;;;;;;;6.34;100.00;96388.13;5044496;28;20293;-57
2023/04/20 00:33:57;;;;;;;4.33;2.80;;;;;;;6.37;100.00;96377.38;5043475;28;20696;-59
2023/04/20 00:36:25;;;;;;;3.00;2.80;;;;;;;6.20;100.00;96375.25;5043930;28;20222;-58
2023/04/20 00:38:52;;;;;;;3.00;2.80;;;;;;;6.25;100.00;96373.09;5045286;28;20199;-58
2023/04/20 00:41:20;;;;;;;2.63;2.43;;;;;;;6.30;100.00;96370.94;5044623;28;20203;-58
2023/04/20 00:43:50;;;;;;;3.47;3.17;;;;;;;6.42;100.00;96370.75;5044155;28;20231;-58
2023/04/20 00:46:17;;;;;;;3.20;3.00;;;;;;;6.40;100.00;96359.56;5044264;28;20350;-59
2023/04/20 00:48:43;;;;;;;3.27;3.07;;;;;;;6.31;100.00;96360.28;5043768;28;20710;-59
2023/04/20 00:51:10;;;;;;;3.13;2.90;;;;;;;6.37;100.00;96361.59;5044312;28;20662;-59
2023/04/20 00:53:37;;;;;;;3.83;3.20;;;;;;;6.42;100.00;96359.44;5044787;28;20214;-59
2023/04/20 00:56:04;;;;;;;3.23;3.03;;;;;;;6.40;100.00;96354.31;5043984;28;20214;-58
2023/04/20 00:58:32;;;;;;;4.17;3.77;;;;;;;6.37;100.00;96351.94;5044633;28;20215;-59
2023/04/20 01:00:58;;;;;;;3.70;3.40;;;;;;;6.29;100.00;96337.75;5044066;28;20245;-58
2023/04/20 01:03:25;;;;;;;3.17;2.97;;;;;;;6.27;100.00;96334.44;5045071;28;20208;-59
2023/04/20 01:05:51;;;;;;;3.40;3.20;;;;;;;6.22;100.00;96336.56;5045236;28;20203;-59
2023/04/20 01:08:18;;;;;;;2.90;2.70;;;;;;;6.13;100.00;96339.97;5048979;28;20199;-58
2023/04/20 01:10:44;;;;;;;4.67;3.40;;;;;;;6.20;100.00;96338.50;5046558;28;20231;-58
2023/04/20 01:13:11;;;;;;;3.60;3.23;;;;;;;6.17;100.00;96333.47;5045991;28;20617;-58
2023/04/20 01:15:38;;;;;;;3.23;2.97;;;;;;;6.23;100.00;96322.50;5043852;28;20210;-58
2023/04/20 01:18:05;;;;;;;3.40;3.20;;;;;;;6.20;100.00;96310.44;5043254;28;20261;-57
2023/04/20 01:20:32;;;;;;;4.30;3.90;;;;;;;6.20;100.00;96314.88;5045081;28;20223;-58
2023/04/20 01:23:00;;;;;;;4.40;3.50;;;;;;;6.18;100.00;96309.75;5045133;28;20218;-58
2023/04/20 01:25:27;;;;;;;3.87;3.57;;;;;;;6.25;100.00;96310.06;5044534;28;20255;-60
2023/04/20 01:27:53;;;;;;;3.93;3.63;;;;;;;6.23;100.00;96312.00;5045371;28;20211;-58
2023/04/20 01:30:20;;;;;;;3.33;3.10;;;;;;;6.21;100.00;96300.78;5044370;28;20200;-59
2023/04/20 01:32:47;;;;;;;5.87;4.07;;;;;;;6.21;100.00;96295.53;5045158;28;20298;-58
2023/04/20 01:35:14;;;;;;;4.17;3.37;;;;;;;6.24;100.00;96290.84;5042823;28;20691;-58
2023/04/20 01:37:41;;;;;;;3.70;3.40;;;;;;;6.27;100.00;96287.16;5044142;28;20298;-59
2023/04/20 01:40:11;;;;;;;3.83;3.43;;;;;;;6.26;100.00;96282.88;5043099;28;20200;-58
2023/04/20 01:42:38;;;;;;;3.90;3.60;;;;;;;6.30;100.00;96284.28;5043057;28;20215;-58
2023/04/20 01:45:05;;;;;;;4.07;3.77;;;;;;;6.35;100.00;96284.72;5043016;28;20227;-59
2023/04/20 01:47:31;;;;;;;3.73;3.43;;;;;;;6.34;100.00;96288.34;5043544;28;20227;-58
2023/04/20 01:49:58;;;;;;;4.10;3.80;;;;;;;6.40;100.00;96283.41;5043483;28;20207;-58
2023/04/20 01:52:24;;;;;;;4.53;3.73;;;;;;;6.42;100.00;96280.63;5043077;28;20686;-59
2023/04/20 01:54:51;;;;;;;4.40;4.10;;;;;;;6.38;100.00;96268.72;5043124;28;21000;-58
2023/04/20 01:57:19;;;;;;;3.93;3.63;;;;;;;6.43;100.00;96259.50;5043806;28;20222;-58
2023/04/20 01:59:45;;;;;;;3.83;3.53;;;;;;;6.38;100.00;96263.47;5042989;28;20212;-60
2023/04/20 02:02:11;;;;;;;4.00;3.70;;;;;;;6.24;100.00;96256.72;5044683;28;20222;-58
2023/04/20 02:04:38;;;;;;;4.00;3.60;;;;;;;6.28;100.00;96257.31;5042983;28;20215;-58
2023/04/20 02:07:04;;;;;;;4.10;3.77;;;;;;;6.21;100.00;96256.13;5044517;28;20211;-58
2023/04/20 02:09:31;;;;;;;3.93;3.63;;;;;;;6.30;100.00;96250.16;5043954;28;20600;-58
2023/04/20 02:11:57;;;;;;;4.50;4.20;;;;;;;6.32;100.00;96240.34;5042770;28;20214;-60
2023/04/20 02:14:25;;;;;;;4.40;4.00;;;;;;;6.25;100.00;96244.44;5043457;28;20200;-58
2023/04/20 02:16:52;;;;;;;3.97;3.70;;;;;;;6.30;100.00;96245.72;5044144;28;20199;-60
2023/04/20 02:19:19;;;;;;;4.47;3.90;;;;;;;6.31;100.00;96241.28;5042090;28;20212;-62
2023/04/20 02:21:45;;;;;;;4.73;4.33;;;;;;;6.26;100.00;96238.22;5044169;28;20211;-59
2023/04/20 02:24:11;;;;;;;4.63;4.23;;;;;;;6.28;100.00;96231.03;5043372;28;20539;-59
2023/04/20 02:26:38;;;;;;;4.53;4.00;;;;;;;6.27;100.00;96221.53;5043498;28;20694;-59
2023/04/20 02:29:04;;;;;;;5.17;4.10;;;;;;;6.30;100.00;96218.66;5043752;28;20281;-58
2023/04/20 02:31:33;;;;;;;4.83;4.20;;;;;;;6.30;100.00;96227.34;5043248;28;20206;-59
2023/04/20 02:33:59;;;;;;;4.50;4.10;;;;;;;6.24;100.00;96224.38;5042150;28;20247;-58
2023/04/20 02:36:27;;;;;;;4.73;4.30;;;;;;;6.24;100.00;96212.09;5043404;28;20207;-59
2023/04/20 02:38:53;;;;;;;4.33;4.03;;;;;;;6.22;100.00;96207.94;5042975;28;20208;-58
2023/04/20 02:41:20;;;;;;;4.97;4.57;;;;;;;6.22;100.00;96200.88;5043000;28;20318;-59
2023/04/20 02:43:46;;;;;;;4.27;3.97;;;;;;;6.28;100.00;96199.53;5042525;28;20203;-60
2023/04/20 02:46:13;;;;;;;4.53;4.23;;;;;;;6.26;100.00;96197.06;5045022;28;20367;-57
2023/04/20 02:48:40;;;;;;;4.27;3.97;;;;;;;6.20;100.00;96204.63;5045315;28;20535;-59
2023/04/20 02:51:07;;;;;;;4.83;4.17;;;;;;;6.26;100.00;96204.09;5048759;28;20207;-59
2023/04/20 02:53:34;;;;;;;4.33;4.03;;;;;;;6.27;100.00;96192.66;5049528;28;20203;-58
2023/04/20 02:56:01;;;;;;;5.23;4.10;;;;;;;6.34;100.00;96193.78;5053694;28;20196;-58
2023/04/20 02:58:27;;;;;;;4.20;3.90;;;;;;;6.31;100.00;96191.41;5052767;28;20208;-58
2023/04/20 03:00:59;;;;;;;4.47;4.03;;;;;;;6.29;100.00;96190.72;5063898;28;20646;-59
2023/04/20 03:03:26;;;;;;;4.80;4.40;;;;;;;6.24;100.00;96187.63;5069130;28;20210;-59
2023/04/20 03:05:54;;;;;;;4.67;4.27;;;;;;;6.30;100.00;96187.13;5063775;28;20223;-59
2023/04/20 03:08:21;;;;;;;4.73;4.33;;;;;;;6.30;100.00;96179.25;5065493;28;20623;-58
2023/04/20 03:10:47;;;;;;;4.57;4.17;;;;;;;6.29;100.00;96178.41;5068036;28;20198;-59
2023/04/20 03:13:13;;;;;;;4.53;4.23;;;;;;;6.30;100.00;96174.00;5061890;28;20214;-58
2023/04/20 03:15:40;;;;;;;4.97;4.57;;;;;;;6.31;100.00;96180.91;5060466;28;20195;-60
2023/04/20 03:18:07;;;;;;;4.57;4.17;;;;;;;6.28;100.00;96179.38;5058626;28;20203;-58
2023/04/20 03:20:33;;;;;;;5.27;4.77;;;;;;;6.31;100.00;96183.53;5059235;28;20234;-58
2023/04/20 03:23:01;;;;;;;5.20;4.70;;;;;;;6.27;100.00;96180.31;5060000;28;20207;-59
2023/04/20 03:25:28;;;;;;;4.50;4.17;;;;;;;6.32;100.00;96182.56;5047236;28;20243;-59
2023/04/20 03:27:54;;;;;;;3.90;3.60;;;;;;;6.31;100.00;96183.53;5046564;28;20601;-58
2023/04/20 03:30:21;;;;;;;5.13;4.30;;;;;;;6.31;100.00;96165.16;5047730;28;20199;-58
2023/04/20 03:32:47;;;;;;;4.63;4.23;;;;;;;6.28;100.00;96168.03;5048722;28;20214;-59
2023/04/20 03:35:14;;;;;;;4.77;4.47;;;;;;;6.32;100.00;96164.19;5048465;28;20235;-58
2023/04/20 03:37:40;;;;;;;4.43;4.10;;;;;;;6.24;100.00;96166.63;5050358;28;20266;-59
2023/04/20 03:40:10;;;;;;;5.10;4.70;;;;;;;6.29;100.00;96161.81;5047167;28;20208;-59
2023/04/20 03:42:37;;;;;;;4.80;4.23;;;;;;;6.25;100.00;96160.41;5047263;28;20220;-60
2023/04/20 03:45:04;;;;;;;4.70;4.30;;;;;;;6.29;100.00;96159.19;5046070;28;20220;-58
2023/04/20 03:47:32;;;;;;;4.43;4.10;;;;;;;6.31;100.00;96167.78;5045612;28;20222;-57
2023/04/20 03:49:58;;;;;;;5.07;4.67;;;;;;;6.35;100.00;96169.19;5045592;28;20207;-58
2023/04/20 03:52:25;;;;;;;4.63;4.33;;;;;;;6.35;100.00;96153.44;5046193;28;20215;-57
2023/04/20 03:54:51;;;;;;;4.77;4.33;;;;;;;6.21;100.00;96161.63;5045884;28;20199;-58
2023/04/20 03:57:19;;;;;;;4.90;4.50;;;;;;;6.26;100.00;96169.97;5045814;28;20208;-58
2023/04/20 03:59:45;;;;;;;6.43;4.70;;;;;;;6.24;100.00;96166.63;5046503;28;20203;-58
2023/04/20 04:02:12;;;;;;;6.03;4.77;;;;;;;6.20;100.00;96165.25;5046008;28;20200;-57
2023/04/20 04:04:39;;;;;;;4.70;4.40;;;;;;;6.17;100.00;96154.97;5046271;28;20204;-57
2023/04/20 04:07:06;;;;;;;5.40;4.60;;;;;;;6.13;100.00;96153.59;5045353;28;20207;-58
2023/04/20 04:09:32;;;;;;;5.13;4.63;;;;;;;6.18;100.00;96151.38;5044771;28;20254;-58
2023/04/20 04:12:00;;;;;;;5.37;4.97;;;;;;;6.16;100.00;96148.91;5045258;28;20302;-60
2023/04/20 04:14:28;;;;;;;5.10;4.70;;;;;;;6.19;100.00;96158.31;5045493;28;20217;-58
2023/04/20 04:16:55;;;;;;;4.60;4.30;;;;;;;6.22;100.00;96153.63;5046431;28;20208;-60
2023/04/20 04:19:21;;;;;;;4.77;4.37;;;;;;;6.20;100.00;96152.91;5046228;28;20222;-58
2023/04/20 04:21:48;;;;;;;5.13;4.80;;;;;;;6.18;100.00;96151.38;5046502;28;20204;-59
2023/04/20 04:24:16;;;;;;;5.13;4.73;;;;;;;6.18;100.00;96156.63;5044716;28;20207;-59
2023/04/20 04:26:42;;;;;;;5.30;4.80;;;;;;;6.13;100.00;96156.22;5044992;28;20749;-59
2023/04/20 04:29:09;;;;;;;5.30;4.80;;;;;;;6.10;100.00;96153.81;5045160;28;20199;-59
2023/04/20 04:31:38;;;;;;;5.50;4.80;;;;;;;6.15;100.00;96152.47;5044778;28;20204;-58
2023/04/20 04:34:04;;;;;;;5.30;4.80;;;;;;;6.08;100.00;96151.34;5044760;28;20235;-59
2023/04/20 04:36:31;;;;;;;4.97;4.57;;;;;;;6.12;100.00;96144.03;5044843;28;20535;-58
2023/04/20 04:38:57;;;;;;;5.47;4.97;;;;;;;6.11;100.00;96139.72;5045278;28;20204;-58
2023/04/20 04:41:24;;;;;;;4.87;4.57;;;;;;;6.05;100.00;96140.25;5044335;28;20223;-59
2023/04/20 04:43:51;;;;;;;5.27;4.87;;;;;;;5.99;100.00;96139.78;5044417;28;20203;-57
2023/04/20 04:46:18;;;;;;;5.07;4.67;;;;;;;6.05;100.00;96146.34;5045088;28;20706;-58
2023/04/20 04:48:46;;;;;;;5.87;5.00;;;;;;;6.06;100.00;96141.94;5045886;28;20294;-58
2023/04/20 04:51:12;;;;;;;5.50;5.00;;;;;;;6.16;100.00;96150.69;5046869;28;20233;-58
2023/04/20 04:53:43;;;;;;;6.13;5.63;;;;;;;6.10;100.00;96135.44;5046440;28;20203;-58
2023/04/20 04:56:10;;;;;;;5.63;5.00;;;;;;;6.06;100.00;96136.69;5045664;28;20192;-58
2023/04/20 04:58:36;;;;;;;6.07;4.93;;;;;;;6.06;100.00;96136.69;5045364;28;20215;-58
2023/04/20 05:01:03;;;;;;;5.30;4.90;;;;;;;6.00;100.00;96143.25;5044753;28;20211;-58
2023/04/20 05:03:30;;;;;;;5.67;5.17;;;;;;;5.97;100.00;96133.84;5044214;28;20214;-58
2023/04/20 05:05:58;;;;;;;5.90;5.40;;;;;;;6.07;100.00;96130.44;5046146;28;20269;-58
2023/04/20 05:08:26;;;;;;;5.97;5.47;;;;;;;6.05;100.00;96124.50;5046992;28;20210;-61
2023/04/20 05:10:52;;;;;;;5.93;5.40;;;;;;;6.22;100.00;96123.91;5045102;28;20208;-61
2023/04/20 05:13:19;;;;;;;6.40;5.87;;;;;;;6.25;100.00;96126.28;5044733;28;20211;-62
2023/04/20 05:15:45;;;;;;;6.03;5.53;;;;;;;6.24;100.00;96124.59;5045255;28;20222;-61
2023/04/20 05:18:12;;;;;;;6.43;5.93;;;;;;;6.28;100.00;96123.41;5045790;28;20210;-60
2023/04/20 05:20:38;;;;;;;6.23;5.73;;;;;;;6.28;100.00;96128.66;5044461;28;20303;-62
2023/04/20 05:23:06;;;;;;;6.00;5.47;;;;;;;6.34;100.00;96136.03;5045163;28;20203;-62
2023/04/20 05:25:32;;;;;;;6.43;5.83;;;;;;;6.35;100.00;96133.25;5043134;28;20219;-61
2023/04/20 05:27:59;;;;;;;6.77;6.27;;;;;;;6.41;100.00;96124.03;5044549;28;20212;-62
2023/04/20 05:30:26;;;;;;;6.70;6.10;;;;;;;6.53;100.00;96125.59;5043675;28;20203;-61
2023/04/20 05:32:52;;;;;;;7.30;6.60;;;;;;;6.50;100.00;96129.34;5044219;28;21377;-59
2023/04/20 05:35:20;;;;;;;7.00;6.40;;;;;;;6.52;100.00;96134.44;5043260;28;20224;-57
2023/04/20 05:37:47;;;;;;;6.43;5.93;;;;;;;6.46;100.00;96124.47;5044318;28;20286;-59
2023/04/20 05:40:15;;;;;;;6.47;5.97;;;;;;;6.45;100.00;96133.28;5043721;28;20265;-57
2023/04/20 05:42:41;;;;;;;6.43;5.93;;;;;;;6.47;100.00;96126.13;5043530;28;20215;-64
2023/04/20 05:45:09;;;;;;;5.90;5.40;;;;;;;6.40;100.00;96135.50;5044068;28;20211;-59
2023/04/20 05:47:35;;;;;;;6.97;6.37;;;;;;;6.38;100.00;96133.00;5042638;28;20202;-59
2023/04/20 05:50:02;;;;;;;6.47;5.97;;;;;;;6.41;100.00;96129.28;5042255;28;20208;-59
2023/04/20 05:52:28;;;;;;;6.17;5.63;;;;;;;6.27;100.00;96132.25;5043750;28;20203;-59
2023/04/20 05:54:58;;;;;;;6.90;6.30;;;;;;;6.19;100.00;96132.91;5044099;28;20514;-59
2023/04/20 05:57:26;;;;;;;5.50;5.10;;;;;;;6.18;100.00;96133.84;5045675;28;20652;-59
2023/04/20 05:59:54;;;;;;;6.20;5.60;;;;;;;6.20;100.00;96131.09;5045909;28;20633;-57
2023/04/20 06:02:21;;;;;;;6.87;6.07;;;;;;;6.14;100.00;96134.22;5044778;28;20207;-58
2023/04/20 06:04:47;;;;;;;6.50;5.40;;;;;;;6.19;100.00;96127.66;5042569;28;20203;-59
2023/04/20 06:07:13;;;;;;;6.27;5.77;;;;;;;6.25;100.00;96126.28;5042719;28;21167;-58
2023/04/20 06:09:40;;;;;;;6.23;5.63;;;;;;;6.23;100.00;96123.81;5043685;28;20219;-60
2023/04/20 06:12:08;;;;;;;7.43;6.23;;;;;;;6.17;100.00;96129.56;5042544;28;20679;-59
2023/04/20 06:14:36;;;;;;;9.63;6.47;;;;;;;6.19;100.00;96127.66;5042212;28;20667;-58
2023/04/20 06:17:02;;;;;;;6.60;6.00;;;;;;;6.18;100.00;96122.50;5042738;28;20227;-59
2023/04/20 06:19:29;;;;;;;6.67;6.17;;;;;;;6.26;100.00;96133.22;5043005;28;20203;-58
2023/04/20 06:21:55;;;;;;;6.47;5.97;;;;;;;6.23;100.00;96146.59;5042769;28;20547;-60
2023/04/20 06:24:22;;;;;;;7.03;6.43;;;;;;;6.16;100.00;96134.94;5042983;28;20214;-58
2023/04/20 06:26:48;;;;;;;7.13;6.57;;;;;;;6.11;100.00;96134.47;5043264;28;20231;-60
2023/04/20 06:29:14;;;;;;;8.57;6.97;;;;;;;6.18;100.00;96139.09;5042941;28;20264;-58
2023/04/20 06:31:42;;;;;;;7.07;6.30;;;;;;;6.19;100.00;96137.31;5042014;28;20204;-59
2023/04/20 06:34:09;;;;;;;7.83;7.00;;;;;;;6.09;100.00;96131.16;5041697;28;20732;-58
2023/04/20 06:36:35;;;;;;;6.50;5.90;;;;;;;6.08;100.00;96134.75;5042694;28;20207;-59
2023/04/20 06:39:02;;;;;;;6.33;5.83;;;;;;;6.11;100.00;96137.94;5042455;28;20632;-58
2023/04/20 06:41:28;;;;;;;7.67;6.17;;;;;;;6.09;100.00;96136.41;5041429;28;20651;-58
2023/04/20 06:43:58;;;;;;;7.30;5.60;;;;;;;6.11;100.00;96130.06;5043326;28;20269;-58
2023/04/20 06:46:24;;;;;;;6.27;5.73;;;;;;;6.08;100.00;96124.25;5041944;28;20663;-57
2023/04/20 06:48:52;;;;;;;6.20;5.70;;;;;;;6.06;100.00;96119.09;5042748;28;20195;-58
2023/04/20 06:51:19;;;;;;;6.10;5.60;;;;;;;6.06;100.00;96126.19;5042511;28;20215;-59
2023/04/20 06:53:46;;;;;;;5.50;5.10;;;;;;;6.17;100.00;96133.97;5042088;28;20200;-58
2023/04/20 06:56:12;;;;;;;5.10;4.70;;;;;;;6.10;100.00;96140.69;5041516;28;20873;-58
2023/04/20 06:58:39;;;;;;;4.70;4.40;;;;;;;6.06;100.00;96139.31;5042309;28;20289;-57
2023/04/20 07:01:06;;;;;;;4.77;4.47;;;;;;;6.02;100.00;96138.72;5041712;28;20277;-59
2023/04/20 07:03:32;;;;;;;4.27;3.97;;;;;;;5.99;100.00;96141.56;5042183;28;20212;-58
2023/04/20 07:06:00;;;;;;;4.90;4.40;;;;;;;5.93;100.00;96124.56;5042074;28;20231;-58
2023/04/20 07:08:27;;;;;;;4.70;4.20;;;;;;;5.96;100.00;96126.09;5042201;28;20215;-58
2023/04/20 07:10:53;;;;;;;4.50;4.10;;;;;;;6.04;100.00;96133.34;5042007;28;20206;-59
2023/04/20 07:13:20;;;;;;;5.03;4.53;;;;;;;6.09;100.00;96139.88;5042192;28;20213;-59
2023/04/20 07:15:47;;;;;;;4.60;4.20;;;;;;;6.02;100.00;96140.50;5041994;28;20199;-59
2023/04/20 07:18:14;;;;;;;5.40;4.37;;;;;;;5.88;100.00;96145.09;5042444;28;20207;-58
2023/04/20 07:20:40;;;;;;;4.60;4.20;;;;;;;5.83;100.00;96141.16;5042305;28;20200;-59
2023/04/20 07:23:08;;;;;;;4.67;4.30;;;;;;;5.84;100.00;96141.03;5042596;28;20221;-59
2023/04/20 07:25:35;;;;;;;4.60;4.30;;;;;;;5.93;100.00;96145.56;5040988;28;20211;-59
2023/04/20 07:28:01;;;;;;;5.30;4.80;;;;;;;5.87;100.00;96140.81;5041752;28;20199;-59
2023/04/20 07:30:27;;;;;;;4.60;4.30;;;;;;;5.91;100.00;96131.75;5042073;28;20699;-59
2023/04/20 07:32:54;;;;;;;5.00;4.30;;;;;;;6.03;100.00;96144.78;5042319;28;20207;-59
2023/04/20 07:35:22;;;;;;;4.80;4.40;;;;;;;6.06;100.00;96141.94;5041733;28;20243;-59
2023/04/20 07:37:48;;;;;;;4.63;4.33;;;;;;;6.02;100.00;96140.50;5041985;28;20341;-59
2023/04/20 07:40:16;;;;;;;5.27;4.50;;;;;;;6.13;100.00;96149.13;5040968;28;20212;-59
2023/04/20 07:42:43;;;;;;;5.17;4.23;;;;;;;6.06;100.00;96141.94;5041238;28;20215;-59
2023/04/20 07:45:11;;;;;;;4.43;4.03;;;;;;;6.10;100.00;96138.91;5044226;28;20211;-58
2023/04/20 07:47:37;;;;;;;4.83;4.43;;;;;;;5.98;100.00;96138.16;5045368;28;20239;-58
2023/04/20 07:50:05;;;;;;;5.17;4.67;;;;;;;6.06;100.00;96147.19;5045048;28;20385;-58
2023/04/20 07:52:31;;;;;;;4.87;4.40;;;;;;;6.03;100.00;96147.41;5045726;28;20754;-59
2023/04/20 07:54:58;;;;;;;4.60;4.30;;;;;;;6.12;100.00;96157.16;5045293;28;20276;-60
2023/04/20 07:57:26;;;;;;;4.37;4.07;;;;;;;6.09;100.00;96154.78;5046055;28;20281;-58
2023/04/20 07:59:53;;;;;;;4.50;4.20;;;;;;;5.94;100.00;96152.47;5044781;28;20217;-59
2023/04/20 08:02:19;;;;;;;5.57;4.90;;;;;;;5.94;100.00;96155.09;5044618;28;20195;-57
2023/04/20 08:04:47;;;;;;;4.90;4.50;;;;;;;6.02;100.00;96151.00;5045428;28;20538;-60
2023/04/20 08:07:13;;;;;;;5.00;4.60;;;;;;;5.98;100.00;96155.69;5044957;28;20227;-58
2023/04/20 08:09:40;;;;;;;4.90;4.50;;;;;;;6.07;100.00;96154.06;5044944;28;20208;-58
2023/04/20 08:12:07;;;;;;;5.37;4.67;;;;;;;6.11;100.00;96144.97;5043910;28;20635;-59
2023/04/20 08:14:36;;;;;;;4.93;4.53;;;;;;;6.14;100.00;96134.22;5044963;28;20204;-58
2023/04/20 08:17:03;;;;;;;4.83;4.50;;;;;;;6.09;100.00;96125.91;5044428;28;20199;-59
2023/04/20 08:19:30;;;;;;;4.40;4.10;;;;;;;6.11;100.00;96134.47;5046469;28;20203;-59
2023/04/20 08:21:56;;;;;;;4.60;4.20;;;;;;;6.18;100.00;96133.00;5044977;28;20696;-60
2023/04/20 08:24:22;;;;;;;5.00;4.50;;;;;;;6.13;100.00;96133.38;5046251;28;20257;-58
2023/04/20 08:26:49;;;;;;;4.43;4.00;;;;;;;6.20;100.00;96123.22;5044933;28;20224;-60
2023/04/20 08:29:15;;;;;;;4.30;3.90;;;;;;;6.15;100.00;96125.41;5045052;28;20204;-57
2023/04/20 08:31:43;;;;;;;4.10;3.80;;;;;;;6.24;100.00;96129.84;5044523;28;20208;-58
2023/04/20 08:34:11;;;;;;;4.20;3.90;;;;;;;6.17;100.00;96123.47;5044164;28;20234;-57
2023/04/20 08:36:37;;;;;;;4.40;4.10;;;;;;;6.25;100.00;96123.66;5044689;28;20207;-58
2023/04/20 08:39:10;;;;;;;4.33;4.03;;;;;;;6.33;100.00;96119.44;5045286;28;20207;-58
2023/04/20 08:41:36;;;;;;;4.77;4.37;;;;;;;6.38;100.00;96125.09;5045242;28;20199;-59
2023/04/20 08:44:03;;;;;;;4.50;4.10;;;;;;;6.46;100.00;96129.72;5044848;28;20244;-59
2023/04/20 08:46:29;;;;;;;4.47;4.07;;;;;;;6.47;100.00;96115.63;5044588;28;20246;-57
2023/04/20 08:48:57;;;;;;;6.10;4.20;;;;;;;6.49;100.00;96111.06;5045017;28;20211;-58
2023/04/20 08:51:24;;;;;;;4.23;3.93;;;;;;;6.51;100.00;96106.53;5044876;28;20547;-59
2023/04/20 08:53:51;;;;;;;4.90;4.37;;;;;;;6.52;100.00;96100.28;5045799;28;20300;-59
2023/04/20 08:56:17;;;;;;;6.20;4.10;;;;;;;6.68;100.00;96108.53;5043899;28;20204;-58
2023/04/20 08:58:44;;;;;;;4.40;4.10;;;;;;;6.83;100.00;96112.47;5044387;28;20258;-58
2023/04/20 09:01:10;;;;;;;4.40;4.10;;;;;;;6.98;100.00;96111.13;5058494;28;20199;-59
2023/04/20 09:03:38;;;;;;;5.10;4.70;;;;;;;6.95;100.00;96103.50;5067403;28;20208;-59
2023/04/20 09:06:14;;;;;;;4.97;4.57;;;;;;;6.93;100.00;96094.94;5066981;28;20199;-59
2023/04/20 09:08:41;;;;;;;6.03;5.47;;;;;;;6.85;100.00;96084.25;5067069;28;20203;-59
2023/04/20 09:11:17;;;;;;;5.43;4.87;;;;;;;6.95;100.00;96079.84;5051436;28;20195;-58
2023/04/20 09:13:43;;;;;;;5.13;4.73;;;;;;;7.10;100.00;96082.94;5060921;28;20175;-60
2023/04/20 09:16:11;;;;;;;5.53;4.90;;;;;;;7.16;100.00;96078.91;5048262;28;20216;-58
2023/04/20 09:18:38;;;;;;;5.67;5.07;;;;;;;7.08;100.00;96078.78;5045997;28;20211;-61
2023/04/20 09:21:10;;;;;;;5.53;4.93;;;;;;;7.18;100.00;96079.63;5044601;28;20210;-57
2023/04/20 09:23:38;;;;;;;5.27;4.73;;;;;;;7.29;100.00;96077.72;5047485;28;20274;-58
2023/04/20 09:26:05;;;;;;;5.00;4.60;;;;;;;7.27;100.00;96081.44;5045259;28;20221;-58
2023/04/20 09:28:38;;;;;;;5.80;5.30;;;;;;;7.40;100.00;96077.56;5043854;28;20211;-59
2023/04/20 09:31:05;;;;;;;5.40;4.90;;;;;;;7.26;100.00;96077.16;5045180;28;20196;-58
2023/04/20 09:33:34;;;;;;;4.93;4.57;;;;;;;7.38;100.00;96076.03;5044759;28;20207;-59
2023/04/20 09:36:03;;;;;;;4.67;4.23;;;;;;;7.46;100.00;96078.81;5044361;28;20212;-58
2023/04/20 09:38:31;;;;;;;4.87;4.43;;;;;;;7.30;100.00;96081.97;5043303;28;20200;-57
2023/04/20 09:41:00;;;;;;;5.97;5.23;;;;;;;7.36;100.00;96067.47;5043891;28;20215;-59
2023/04/20 09:43:28;;;;;;;5.73;5.23;;;;;;;7.48;100.00;96077.72;5044804;28;20540;-58
2023/04/20 09:45:55;;;;;;;5.07;4.67;;;;;;;7.52;100.00;96070.38;5043202;28;20242;-58
2023/04/20 09:48:22;;;;;;;5.73;5.23;;;;;;;7.58;100.00;96069.81;5043260;28;20319;-58
2023/04/20 09:50:49;;;;;;;6.03;5.17;;;;;;;7.61;100.00;96077.47;5045722;28;20212;-58
2023/04/20 09:53:16;;;;;;;5.37;4.80;;;;;;;7.63;100.00;96078.13;5044911;28;20203;-59
2023/04/20 09:55:45;;;;;;;8.50;4.80;;;;;;;7.64;100.00;96082.44;5043525;28;20218;-59
2023/04/20 09:58:12;;;;;;;5.83;5.00;;;;;;;7.58;100.00;96077.72;5043640;28;20200;-59
2023/04/20 10:00:38;;;;;;;5.67;4.70;;;;;;;7.68;100.00;96072.47;5042445;28;20648;-58
2023/04/20 10:03:07;;;;;;;5.90;5.40;;;;;;;7.56;100.00;96069.13;5042845;28;20230;-58
2023/04/20 10:05:35;;;;;;;5.80;4.77;;;;;;;7.59;100.00;96079.38;5042948;28;20255;-59
2023/04/20 10:08:02;;;;;;;5.27;4.77;;;;;;;7.61;100.00;96080.09;5043585;28;20227;-60
2023/04/20 10:10:29;;;;;;;5.00;4.50;;;;;;;7.62;100.00;96076.47;5042765;28;20207;-58
2023/04/20 10:12:59;;;;;;;4.80;4.40;;;;;;;7.66;100.00;96075.22;5042932;28;20218;-58
2023/04/20 10:15:36;;;;;;;4.50;4.20;;;;;;;7.44;100.00;96080.75;5042868;28;20658;-59
2023/04/20 10:18:03;;;;;;;4.53;4.23;;;;;;;7.28;100.00;96078.69;5041944;28;20218;-59
2023/04/20 10:20:29;;;;;;;4.50;4.10;;;;;;;7.41;100.00;96079.22;5042986;28;20293;-58
2023/04/20 10:23:08;;;;;;;4.17;3.87;;;;;;;7.33;100.00;96073.00;5042900;28;20214;-58
2023/04/20 10:25:34;;;;;;;4.10;3.70;;;;;;;7.20;100.00;96072.41;5042764;28;20234;-58
2023/04/20 10:28:08;;;;;;;4.77;4.37;;;;;;;7.20;100.00;96070.63;5043279;28;20254;-58
2023/04/20 10:30:35;;;;;;;4.67;4.27;;;;;;;7.12;100.00;96069.66;5045196;28;20206;-58
2023/04/20 10:33:03;;;;;;;4.30;4.00;;;;;;;7.05;100.00;96079.88;5044172;28;20210;-59
2023/04/20 10:35:41;;;;;;;4.40;4.00;;;;;;;7.07;100.00;96071.84;5042449;28;20289;-59
2023/04/20 10:38:07;;;;;;;4.63;4.23;;;;;;;7.01;100.00;96068.78;5042673;28;20201;-59
2023/04/20 10:40:34;;;;;;;5.27;4.87;;;;;;;7.10;100.00;96066.31;5042499;28;20543;-59
2023/04/20 10:43:00;;;;;;;4.43;4.13;;;;;;;7.10;100.00;96066.31;5042757;28;20203;-58
2023/04/20 10:45:35;;;;;;;5.13;4.40;;;;;;;7.06;100.00;96060.50;5042087;28;20590;-59
2023/04/20 10:48:07;;;;;;;4.63;4.20;;;;;;;7.12;100.00;96056.50;5043194;28;20239;-58
2023/04/20 10:50:34;;;;;;;4.50;4.20;;;;;;;7.12;100.00;96069.66;5049729;28;20592;-59
2023/04/20 10:53:02;;;;;;;5.03;4.60;;;;;;;7.15;100.00;96064.97;5047217;28;20290;-57
2023/04/20 10:55:28;;;;;;;4.90;4.60;;;;;;;7.23;100.00;96064.25;5044718;28;20242;-58
2023/04/20 10:57:55;;;;;;;5.30;4.63;;;;;;;7.22;100.00;96066.06;5042881;28;20199;-59
2023/04/20 11:00:24;;;;;;;5.17;4.70;;;;;;;7.20;100.00;96061.91;5041927;28;20227;-58
2023/04/20 11:02:53;;;;;;;4.90;4.50;;;;;;;7.27;100.00;96055.13;5041944;28;20217;-58
2023/04/20 11:05:21;;;;;;;5.07;4.67;;;;;;;7.26;100.00;96050.84;5042549;28;20582;-60
2023/04/20 11:07:59;;;;;;;4.40;4.10;;;;;;;7.15;100.00;96054.44;5042596;28;20215;-58
2023/04/20 11:10:37;;;;;;;4.80;4.40;;;;;;;7.19;100.00;96045.28;5042473;28;20197;-58
2023/04/20 11:13:04;;;;;;;4.90;4.50;;;;;;;7.15;100.00;96049.19;5042487;28;20192;-57
2023/04/20 11:15:34;;;;;;;4.87;4.47;;;;;;;7.21;100.00;96039.91;5044825;28;20222;-59
2023/04/20 11:18:08;;;;;;;5.27;4.87;;;;;;;7.10;100.00;96034.78;5042687;28;20203;-57
2023/04/20 11:20:35;;;;;;;4.80;4.40;;;;;;;7.13;100.00;96040.59;5046467;28;20219;-58
2023/04/20 11:23:03;;;;;;;4.70;4.30;;;;;;;7.17;100.00;96041.16;5046672;28;20215;-59
2023/04/20 11:25:31;;;;;;;5.13;4.73;;;;;;;7.15;100.00;96051.81;5046106;28;20208;-57
2023/04/20 11:28:06;;;;;;;5.07;4.67;;;;;;;7.13;100.00;96045.84;5046399;28;20543;-59
2023/04/20 11:30:38;;;;;;;5.20;4.70;;;;;;;7.10;100.00;96040.03;5046741;28;20312;-58
2023/04/20 11:33:05;;;;;;;5.37;4.97;;;;;;;7.18;100.00;96034.94;5045136;28;20636;-58
2023/04/20 11:35:37;;;;;;;4.73;4.33;;;;;;;7.19;100.00;96041.84;5045042;28;20254;-58